createdAt,value
2023-06-04T00:02:14.804Z,0.63
2023-06-04T00:04:41.432Z,0.80
2023-06-04T00:07:07.901Z,1.00
2023-06-04T00:09:34.281Z,0.77
2023-06-04T00:12:00.876Z,0.90
2023-06-04T00:14:27.399Z,0.80
2023-06-04T00:16:53.821Z,0.75
2023-06-04T00:19:20.312Z,1.00
2023-06-04T00:21:47.063Z,0.80
2023-06-04T00:24:14.031Z,0.73
2023-06-04T00:26:41.101Z,0.60
2023-06-04T00:29:07.624Z,0.95
2023-06-04T00:31:34.149Z,0.77
2023-06-04T00:34:00.598Z,1.27
2023-06-04T00:36:26.987Z,0.40
2023-06-04T00:38:53.518Z,0.52
2023-06-04T00:41:19.904Z,0.47
2023-06-04T00:43:46.279Z,0.90
2023-06-04T00:46:13.393Z,0.75
2023-06-04T00:51:06.899Z,0.47
2023-06-04T00:53:33.680Z,0.50
2023-06-04T00:56:00.099Z,0.77
2023-06-04T00:58:26.632Z,0.90
2023-06-04T01:00:57.474Z,0.38
2023-06-04T01:03:29.163Z,0.70
2023-06-04T01:06:03.045Z,0.57
2023-06-04T01:08:30.389Z,1.30
2023-06-04T01:10:57.330Z,0.40
2023-06-04T01:13:25.914Z,0.88
2023-06-04T01:15:52.332Z,0.73
2023-06-04T01:18:28.298Z,0.32
2023-06-04T01:21:02.831Z,0.95
2023-06-04T01:23:49.816Z,0.50
2023-06-04T01:26:16.476Z,0.73
2023-06-04T01:28:45.876Z,0.68
2023-06-04T01:31:12.499Z,0.40
2023-06-04T01:33:39.046Z,0.80
2023-06-04T01:36:05.491Z,0.73
2023-06-04T01:38:31.887Z,0.70
2023-06-04T01:40:58.367Z,0.63
2023-06-04T01:43:24.776Z,0.70
2023-06-04T01:45:51.258Z,0.82
2023-06-04T01:48:17.659Z,1.05
2023-06-04T01:50:44.096Z,0.47
2023-06-04T01:53:10.474Z,0.70
2023-06-04T01:55:36.844Z,0.80
2023-06-04T01:58:03.264Z,1.42
2023-06-04T02:00:30.164Z,1.02
2023-06-04T02:02:56.638Z,1.05
2023-06-04T02:05:23.139Z,0.70
2023-06-04T02:07:49.517Z,0.65
2023-06-04T02:10:18.701Z,0.52
2023-06-04T02:12:59.447Z,0.38
2023-06-04T02:15:27.941Z,1.35
2023-06-04T02:17:57.780Z,0.90
2023-06-04T02:20:24.157Z,0.77
2023-06-04T02:22:50.601Z,0.47
2023-06-04T02:25:16.994Z,0.73
2023-06-04T02:27:43.423Z,0.60
2023-06-04T02:30:10.437Z,0.43
2023-06-04T02:32:36.932Z,0.70
2023-06-04T02:35:04.543Z,0.70
2023-06-04T02:37:30.976Z,0.52
2023-06-04T02:39:57.337Z,0.60
2023-06-04T02:42:23.700Z,0.57
2023-06-04T02:44:50.068Z,0.68
2023-06-04T02:47:16.454Z,0.55
2023-06-04T02:49:43.259Z,0.90
2023-06-04T02:52:09.765Z,1.75
2023-06-04T02:54:36.135Z,0.70
2023-06-04T02:57:02.641Z,0.95
2023-06-04T02:59:29.027Z,0.80
2023-06-04T03:01:55.604Z,0.70
2023-06-04T03:04:22.291Z,0.40
2023-06-04T03:06:48.697Z,0.80
2023-06-04T03:09:15.061Z,1.08
2023-06-04T03:11:41.678Z,0.65
2023-06-04T03:14:08.114Z,0.68
2023-06-04T03:16:34.585Z,0.47
2023-06-04T03:19:01.061Z,1.00
2023-06-04T03:21:28.727Z,0.70
2023-06-04T03:23:55.207Z,0.80
2023-06-04T03:26:21.591Z,0.73
2023-06-04T03:28:48.050Z,0.43
2023-06-04T03:31:14.496Z,0.55
2023-06-04T03:33:40.890Z,0.57
2023-06-04T03:36:07.266Z,0.90
2023-06-04T03:38:33.669Z,0.60
2023-06-04T03:41:00.033Z,0.77
2023-06-04T03:43:26.421Z,0.40
2023-06-04T03:45:52.897Z,0.80
2023-06-04T03:48:19.263Z,0.82
2023-06-04T03:50:45.771Z,0.68
2023-06-04T03:53:12.395Z,0.95
2023-06-04T03:55:38.998Z,0.80
2023-06-04T03:58:05.416Z,0.60
2023-06-04T04:00:31.809Z,0.65
2023-06-04T04:02:58.298Z,1.00
2023-06-04T04:05:24.771Z,0.90
2023-06-04T04:07:51.255Z,0.90
2023-06-04T04:10:17.697Z,0.47
2023-06-04T04:12:44.237Z,0.35
2023-06-04T04:15:10.792Z,0.60
2023-06-04T04:17:37.195Z,0.40
2023-06-04T04:20:03.721Z,0.52
2023-06-04T04:22:30.090Z,0.75
2023-06-04T04:24:56.466Z,0.70
2023-06-04T04:27:22.874Z,0.60
2023-06-04T04:29:49.299Z,0.80
2023-06-04T04:32:15.724Z,0.63
2023-06-04T04:34:52.286Z,1.25
2023-06-04T04:37:18.681Z,1.05
2023-06-04T04:39:45.041Z,1.25
2023-06-04T04:42:11.542Z,0.63
2023-06-04T04:44:37.927Z,0.88
2023-06-04T04:47:04.604Z,0.57
2023-06-04T04:49:31.050Z,0.90
2023-06-04T04:51:57.447Z,0.95
2023-06-04T04:54:23.813Z,0.75
2023-06-04T04:56:55.894Z,0.65
2023-06-04T04:59:31.542Z,0.65
2023-06-04T05:01:57.954Z,0.63
2023-06-04T05:04:24.390Z,1.10
2023-06-04T05:06:50.882Z,0.93
2023-06-04T05:09:17.354Z,0.80
2023-06-04T05:11:43.820Z,0.65
2023-06-04T05:14:10.184Z,1.10
2023-06-04T05:16:36.647Z,0.80
2023-06-04T05:19:03.122Z,0.85
2023-06-04T05:21:29.528Z,0.80
2023-06-04T05:23:56.302Z,0.82
2023-06-04T05:26:22.745Z,1.05
2023-06-04T05:28:49.347Z,0.57
2023-06-04T05:31:15.926Z,0.70
2023-06-04T05:33:42.558Z,0.90
2023-06-04T05:36:08.944Z,0.90
2023-06-04T05:38:35.525Z,0.70
2023-06-04T05:41:02.847Z,0.80
2023-06-04T05:43:29.243Z,0.70
2023-06-04T05:45:55.792Z,0.75
2023-06-04T05:48:22.320Z,1.25
2023-06-04T05:50:48.662Z,0.60
2023-06-04T05:53:15.094Z,0.60
2023-06-04T05:55:41.513Z,0.70
2023-06-04T05:58:08.025Z,0.63
2023-06-04T06:00:34.510Z,0.82
2023-06-04T06:03:01.722Z,0.65
2023-06-04T06:05:28.197Z,0.88
2023-06-04T06:07:54.704Z,0.73
2023-06-04T06:10:21.144Z,1.98
2023-06-04T06:12:47.589Z,1.23
2023-06-04T06:15:14.020Z,0.73
2023-06-04T06:17:40.514Z,0.98
2023-06-04T06:20:07.551Z,0.77
2023-06-04T06:22:34.001Z,0.75
2023-06-04T06:25:00.472Z,0.90
2023-06-04T06:27:26.877Z,0.43
2023-06-04T06:29:53.278Z,0.73
2023-06-04T06:32:19.669Z,1.13
2023-06-04T06:34:46.073Z,0.73
2023-06-04T06:37:12.453Z,0.88
2023-06-04T06:39:38.842Z,0.50
2023-06-04T06:42:05.556Z,0.30
2023-06-04T06:44:32.056Z,0.70
2023-06-04T06:46:58.533Z,0.80
2023-06-04T06:49:25.068Z,0.47
2023-06-04T06:51:51.453Z,0.85
2023-06-04T06:54:17.878Z,0.60
2023-06-04T06:56:44.264Z,0.60
2023-06-04T06:59:10.680Z,1.10
2023-06-04T07:01:37.229Z,0.60
2023-06-04T07:04:03.744Z,0.55
2023-06-04T07:06:30.211Z,0.68
2023-06-04T07:08:56.608Z,0.60
2023-06-04T07:11:23.036Z,0.73
2023-06-04T07:13:49.416Z,0.52
2023-06-04T07:16:16.002Z,0.47
2023-06-04T07:18:42.488Z,0.50
2023-06-04T07:21:09.124Z,0.50
2023-06-04T07:23:35.732Z,0.93
2023-06-04T07:26:02.391Z,0.55
2023-06-04T07:28:28.801Z,0.50
2023-06-04T07:30:55.206Z,0.63
2023-06-04T07:33:21.615Z,0.85
2023-06-04T07:35:48.047Z,0.70
2023-06-04T07:38:14.475Z,0.68
2023-06-04T07:40:40.854Z,0.82
2023-06-04T07:43:07.278Z,0.40
2023-06-04T07:45:35.879Z,0.80
2023-06-04T07:48:02.881Z,0.80
2023-06-04T07:50:29.462Z,0.65
2023-06-04T07:52:55.814Z,0.73
2023-06-04T07:55:23.292Z,0.50
2023-06-04T07:57:49.711Z,0.70
2023-06-04T08:00:16.715Z,0.90
2023-06-04T08:02:43.176Z,0.80
2023-06-04T08:05:09.681Z,0.52
2023-06-04T08:07:36.252Z,0.60
2023-06-04T08:10:02.663Z,0.65
2023-06-04T08:12:29.123Z,0.60
2023-06-04T08:14:55.515Z,0.65
2023-06-04T08:17:21.923Z,0.63
2023-06-04T08:19:48.354Z,0.60
2023-06-04T08:22:14.817Z,0.70
2023-06-04T08:24:41.487Z,0.60
2023-06-04T08:27:07.873Z,0.60
2023-06-04T08:29:34.319Z,0.80
2023-06-04T08:32:00.873Z,0.70
2023-06-04T08:34:27.317Z,0.70
2023-06-04T08:36:53.749Z,0.57
2023-06-04T08:39:20.235Z,0.80
2023-06-04T08:41:57.594Z,0.68
2023-06-04T08:44:24.010Z,0.80
2023-06-04T08:46:52.762Z,0.88
2023-06-04T08:49:19.808Z,0.88
2023-06-04T08:51:46.223Z,0.68
2023-06-04T08:54:12.709Z,0.70
2023-06-04T08:56:39.140Z,0.50
2023-06-04T08:59:07.388Z,0.68
2023-06-04T09:01:34.853Z,0.68
2023-06-04T09:04:05.071Z,0.80
2023-06-04T09:06:36.823Z,0.55
2023-06-04T09:09:05.709Z,0.70
2023-06-04T09:11:40.301Z,0.88
2023-06-04T09:14:09.130Z,0.63
2023-06-04T09:16:49.542Z,0.90
2023-06-04T09:19:17.855Z,0.60
2023-06-04T09:21:56.140Z,0.90
2023-06-04T09:24:25.088Z,0.90
2023-06-04T09:26:52.081Z,0.73
2023-06-04T09:29:19.099Z,0.80
2023-06-04T09:31:46.755Z,0.80
2023-06-04T09:34:13.557Z,0.75
2023-06-04T09:36:39.939Z,0.95
2023-06-04T09:39:19.060Z,1.10
2023-06-04T09:41:45.560Z,1.10
2023-06-04T09:44:11.981Z,1.02
2023-06-04T09:46:38.404Z,0.75
2023-06-04T09:49:06.909Z,0.85
2023-06-04T09:51:33.877Z,1.05
2023-06-04T09:54:03.631Z,1.02
2023-06-04T09:56:30.399Z,0.93
2023-06-04T09:59:01.346Z,0.75
2023-06-04T10:01:29.434Z,0.70
2023-06-04T10:03:58.779Z,1.10
2023-06-04T10:06:27.651Z,0.88
2023-06-04T10:08:58.269Z,1.00
2023-06-04T10:11:34.904Z,0.88
2023-06-04T10:14:04.749Z,1.10
2023-06-04T10:16:34.874Z,0.90
2023-06-04T10:19:01.853Z,0.80
2023-06-04T10:23:55.718Z,1.05
2023-06-04T10:26:22.487Z,0.77
2023-06-04T10:28:49.302Z,0.98
2023-06-04T10:31:16.960Z,0.77
2023-06-04T10:33:43.425Z,0.90
2023-06-04T10:36:20.790Z,1.00
2023-06-04T10:38:49.039Z,0.80
2023-06-04T10:41:16.600Z,1.23
2023-06-04T10:43:47.251Z,0.80
2023-06-04T10:46:14.962Z,1.25
2023-06-04T10:48:52.261Z,0.90
2023-06-04T10:51:34.702Z,1.00
2023-06-04T10:54:02.827Z,1.05
2023-06-04T10:56:34.299Z,0.90
2023-06-04T10:59:01.408Z,0.90
2023-06-04T11:01:28.729Z,1.08
2023-06-04T11:03:58.555Z,0.90
2023-06-04T11:06:25.105Z,0.77
2023-06-04T11:09:01.860Z,0.60
2023-06-04T11:11:28.371Z,1.00
2023-06-04T11:13:54.808Z,0.80
2023-06-04T11:16:22.167Z,0.95
2023-06-04T11:18:58.530Z,1.00
2023-06-04T11:21:27.691Z,0.73
2023-06-04T11:24:01.927Z,0.88
2023-06-04T11:26:32.950Z,1.20
2023-06-04T11:28:59.626Z,1.17
2023-06-04T11:31:26.082Z,0.90
2023-06-04T11:33:52.515Z,1.00
2023-06-04T11:36:25.617Z,0.88
2023-06-04T11:39:02.336Z,0.95
2023-06-04T11:41:32.868Z,1.00
2023-06-04T11:44:03.954Z,1.00
2023-06-04T11:46:33.675Z,1.05
2023-06-04T11:49:00.803Z,0.80
2023-06-04T11:51:28.928Z,1.05
2023-06-04T11:53:55.906Z,1.10
2023-06-04T11:56:25.742Z,0.90
2023-06-04T11:58:53.672Z,0.95
2023-06-04T12:01:20.604Z,1.00
2023-06-04T12:03:47.837Z,1.00
2023-06-04T12:06:19.412Z,1.15
2023-06-04T12:08:54.224Z,1.13
2023-06-04T12:11:26.131Z,1.20
2023-06-04T12:13:52.960Z,0.90
2023-06-04T12:16:19.543Z,0.90
2023-06-04T12:18:46.343Z,1.25
2023-06-04T12:21:22.800Z,1.00
2023-06-04T12:23:49.341Z,0.95
2023-06-04T12:29:02.478Z,0.90
2023-06-04T12:31:29.412Z,1.00
2023-06-04T12:33:56.125Z,1.15
2023-06-04T12:36:22.678Z,2.58
2023-06-04T12:38:49.564Z,0.88
2023-06-04T12:41:17.171Z,0.90
2023-06-04T12:43:43.845Z,1.40
2023-06-04T12:46:11.332Z,1.10
2023-06-04T12:48:37.984Z,1.10
2023-06-04T12:51:04.484Z,0.85
2023-06-04T12:55:58.662Z,1.17
2023-06-04T12:58:25.441Z,1.15
2023-06-04T13:00:52.061Z,1.10
2023-06-04T13:03:18.641Z,1.27
2023-06-04T13:05:45.318Z,1.10
2023-06-04T13:08:12.032Z,0.90
2023-06-04T13:10:38.548Z,1.10
2023-06-04T13:13:05.103Z,0.98
2023-06-04T13:15:31.652Z,0.80
2023-06-04T13:20:24.769Z,1.20
2023-06-04T13:25:17.744Z,1.02
2023-06-04T13:30:16.112Z,1.00
2023-06-04T13:32:42.745Z,1.02
2023-06-04T13:35:09.788Z,1.25
2023-06-04T13:37:36.453Z,0.98
2023-06-04T13:40:03.513Z,1.27
2023-06-04T13:42:30.439Z,1.10
2023-06-04T13:44:57.227Z,1.00
2023-06-04T13:47:23.744Z,1.08
2023-06-04T13:52:16.841Z,1.10
2023-06-04T13:54:44.116Z,1.00
2023-06-04T13:57:11.057Z,1.13
2023-06-04T13:59:37.857Z,1.00
2023-06-04T14:02:04.903Z,1.23
2023-06-04T14:04:31.736Z,1.30
2023-06-04T14:06:58.602Z,1.00
2023-06-04T14:09:25.626Z,1.02
2023-06-04T14:11:52.180Z,1.15
2023-06-04T14:16:49.118Z,1.20
2023-06-04T14:19:15.960Z,0.90
2023-06-04T14:21:46.209Z,1.08
2023-06-04T14:24:12.785Z,0.90
2023-06-04T14:29:06.128Z,0.85
2023-06-04T14:31:32.735Z,0.95
2023-06-04T14:33:59.287Z,0.95
2023-06-04T14:36:26.073Z,0.82
2023-06-04T14:38:52.574Z,1.05
2023-06-04T14:43:46.403Z,0.88
2023-06-04T14:46:13.257Z,1.00
2023-06-04T14:48:39.928Z,0.90
2023-06-04T14:51:06.535Z,1.48
2023-06-04T14:53:33.300Z,1.10
2023-06-04T14:55:59.792Z,1.27
2023-06-04T15:00:52.765Z,1.05
2023-06-04T15:05:46.326Z,1.23
2023-06-04T15:08:12.871Z,1.00
2023-06-04T15:13:07.013Z,1.00
2023-06-04T15:15:33.516Z,1.08
2023-06-04T15:20:27.281Z,1.05
2023-06-04T15:22:55.474Z,0.90
2023-06-04T15:25:22.100Z,1.10
2023-06-04T15:27:48.678Z,1.17
2023-06-04T15:30:15.449Z,1.00
2023-06-04T15:32:42.099Z,1.17
2023-06-04T15:35:09.187Z,0.90
2023-06-04T15:37:35.936Z,0.95
2023-06-04T15:40:03.043Z,0.95
2023-06-04T15:42:30.001Z,0.80
2023-06-04T15:44:56.748Z,1.08
2023-06-04T15:47:23.746Z,1.10
2023-06-04T15:49:50.503Z,0.88
2023-06-04T15:52:17.254Z,1.10
2023-06-04T15:54:46.930Z,1.02
2023-06-04T15:57:14.630Z,1.75
2023-06-04T15:59:42.063Z,1.30
2023-06-04T16:02:09.248Z,1.88
2023-06-04T16:04:36.100Z,0.90
2023-06-04T16:07:03.363Z,1.02
2023-06-04T16:09:30.384Z,0.77
2023-06-04T16:11:57.011Z,0.70
2023-06-04T16:14:23.715Z,2.20
2023-06-04T16:16:51.918Z,1.83
2023-06-04T16:19:18.656Z,1.55
2023-06-04T16:21:45.234Z,1.13
2023-06-04T16:26:38.446Z,1.48
2023-06-04T16:31:31.999Z,1.08
2023-06-04T16:33:58.624Z,1.00
2023-06-04T16:36:25.493Z,0.90
2023-06-04T16:38:52.009Z,0.73
2023-06-04T16:43:45.334Z,0.95
2023-06-04T16:46:11.862Z,0.75
2023-06-04T16:51:06.661Z,0.85
2023-06-04T16:53:33.372Z,0.90
2023-06-04T16:55:59.907Z,1.00
2023-06-04T16:58:26.686Z,1.08
2023-06-04T17:00:53.623Z,1.08
2023-06-04T17:03:20.751Z,1.50
2023-06-04T17:05:47.718Z,1.00
2023-06-04T17:08:14.438Z,1.02
2023-06-04T17:10:41.232Z,1.25
2023-06-04T17:13:07.974Z,1.20
2023-06-04T17:15:34.533Z,1.27
2023-06-04T17:18:01.240Z,2.90
2023-06-04T17:20:29.520Z,0.80
2023-06-04T17:22:59.561Z,1.08
2023-06-04T17:25:26.484Z,1.30
2023-06-04T17:27:53.054Z,1.42
2023-06-04T17:30:20.536Z,1.00
2023-06-04T17:32:48.040Z,0.85
2023-06-04T17:35:15.598Z,1.38
2023-06-04T17:37:42.139Z,1.00
2023-06-04T17:40:09.212Z,0.73
2023-06-04T17:42:35.959Z,1.00
2023-06-04T17:47:29.897Z,0.88
2023-06-04T17:49:56.483Z,0.98
2023-06-04T17:52:23.256Z,1.17
2023-06-04T17:54:50.006Z,1.27
2023-06-04T17:59:44.659Z,0.98
2023-06-04T18:02:11.405Z,1.00
2023-06-04T18:04:41.009Z,0.73
2023-06-04T18:07:07.902Z,1.27
2023-06-04T18:09:34.589Z,0.95
2023-06-04T18:12:01.083Z,0.90
2023-06-04T18:16:54.226Z,1.30
2023-06-04T18:19:22.254Z,0.80
2023-06-04T18:21:48.882Z,0.93
2023-06-04T18:24:15.638Z,0.85
2023-06-04T18:26:42.383Z,0.88
2023-06-04T18:29:08.846Z,1.00
2023-06-04T18:31:35.607Z,0.75
2023-06-04T18:36:31.782Z,1.02
2023-06-04T18:39:01.905Z,1.00
2023-06-04T18:41:28.457Z,0.93
2023-06-04T18:43:54.879Z,1.08
2023-06-04T18:46:21.358Z,1.10
2023-06-04T18:48:47.868Z,0.95
2023-06-04T18:51:17.161Z,0.82
2023-06-04T18:53:43.773Z,0.95
2023-06-04T18:56:10.433Z,1.30
2023-06-04T19:01:03.445Z,1.08
2023-06-04T19:03:29.993Z,1.08
2023-06-04T19:05:56.468Z,1.20
2023-06-04T19:08:22.998Z,1.00
2023-06-04T19:10:49.450Z,1.02
2023-06-04T19:13:15.949Z,1.27
2023-06-04T19:15:42.664Z,1.00
2023-06-04T19:18:10.782Z,1.30
2023-06-04T19:20:37.576Z,1.58
2023-06-04T19:25:31.003Z,1.30
2023-06-04T19:27:57.635Z,1.30
2023-06-04T19:30:24.074Z,1.60
2023-06-04T19:32:54.102Z,0.93
2023-06-04T19:35:20.880Z,1.48
2023-06-04T19:40:16.223Z,1.05
2023-06-04T19:42:42.688Z,1.35
2023-06-04T19:45:09.817Z,1.25
2023-06-04T19:47:37.432Z,1.50
2023-06-04T19:50:04.591Z,1.55
2023-06-04T19:52:31.388Z,1.63
2023-06-04T19:57:24.534Z,1.30
2023-06-04T19:59:51.206Z,1.50
2023-06-04T20:02:17.803Z,1.45
2023-06-04T20:04:44.403Z,1.65
2023-06-04T20:07:11.203Z,1.40
2023-06-04T20:12:04.300Z,1.27
2023-06-04T20:14:31.100Z,1.67
2023-06-04T20:19:24.067Z,1.65
2023-06-04T20:21:50.860Z,1.75
2023-06-04T20:24:18.711Z,1.33
2023-06-04T20:26:46.666Z,1.70
2023-06-04T20:29:13.178Z,1.67
2023-06-04T20:31:39.577Z,1.80
2023-06-04T20:34:07.289Z,2.13
2023-06-04T20:36:33.835Z,2.33
2023-06-04T20:39:00.249Z,3.10
2023-06-04T20:41:26.808Z,2.70
2023-06-04T20:43:55.311Z,2.72
2023-06-04T20:46:22.644Z,2.90
2023-06-04T20:48:52.401Z,3.00
2023-06-04T20:51:21.002Z,2.90
2023-06-04T20:53:48.563Z,2.85
2023-06-04T20:56:15.709Z,3.08
2023-06-04T20:58:42.773Z,2.60
2023-06-04T21:01:09.620Z,2.85
2023-06-04T21:03:36.301Z,2.40
2023-06-04T21:06:02.945Z,2.38
2023-06-04T21:08:30.884Z,2.45
2023-06-04T21:10:57.743Z,1.95
2023-06-04T21:15:50.788Z,1.70
2023-06-04T21:18:17.206Z,1.70
2023-06-04T21:20:43.733Z,1.77
2023-06-04T21:23:11.022Z,1.58
2023-06-04T21:25:37.979Z,1.70
2023-06-04T21:28:04.701Z,1.13
2023-06-04T21:30:31.475Z,1.08
2023-06-04T21:35:24.633Z,1.10
2023-06-04T21:37:51.248Z,1.10
2023-06-04T21:40:17.752Z,1.13
2023-06-04T21:42:44.476Z,1.20
2023-06-04T21:45:12.113Z,0.93
2023-06-04T21:47:39.571Z,1.08
2023-06-04T21:52:32.708Z,0.90
2023-06-04T21:54:59.763Z,0.95
2023-06-04T21:57:26.308Z,0.98
2023-06-04T21:59:52.900Z,0.70
2023-06-04T22:02:19.406Z,1.08
2023-06-04T22:04:46.130Z,0.80
2023-06-04T22:07:12.789Z,1.25
2023-06-04T22:09:39.268Z,0.98
2023-06-04T22:12:06.690Z,0.60
2023-06-04T22:14:35.419Z,0.98
2023-06-04T22:17:01.853Z,0.77
2023-06-04T22:19:28.310Z,0.88
2023-06-04T22:21:54.700Z,0.93
2023-06-04T22:24:21.141Z,1.00
2023-06-04T22:26:47.869Z,0.80
2023-06-04T22:29:14.305Z,0.88
2023-06-04T22:31:40.902Z,0.68
2023-06-04T22:34:07.400Z,0.95
2023-06-04T22:36:34.221Z,1.00
2023-06-04T22:39:00.672Z,1.00
2023-06-04T22:41:27.167Z,1.20
2023-06-04T22:43:53.659Z,1.38
2023-06-04T22:46:20.238Z,0.68
2023-06-04T22:48:47.081Z,1.00
2023-06-04T22:51:13.530Z,0.80
2023-06-04T22:53:40.102Z,1.08
2023-06-04T22:56:06.743Z,1.00
2023-06-04T22:58:34.659Z,1.00
2023-06-04T23:01:01.445Z,1.17
2023-06-04T23:03:28.337Z,1.02
2023-06-04T23:08:21.937Z,0.68
2023-06-04T23:10:48.379Z,0.85
2023-06-04T23:13:16.257Z,1.10
2023-06-04T23:15:42.780Z,0.90
2023-06-04T23:18:09.395Z,0.93
2023-06-04T23:20:36.584Z,1.05
2023-06-04T23:23:03.132Z,0.77
2023-06-04T23:25:29.639Z,0.95
2023-06-04T23:27:56.166Z,0.70
2023-06-04T23:30:22.812Z,0.80
2023-06-04T23:32:49.310Z,0.88
2023-06-04T23:35:16.108Z,0.50
2023-06-04T23:37:42.559Z,1.10
2023-06-04T23:40:09.554Z,0.63
2023-06-04T23:45:04.796Z,0.80
2023-06-04T23:47:31.321Z,0.80
2023-06-04T23:49:58.225Z,0.90
2023-06-04T23:52:25.397Z,0.80
2023-06-04T23:57:18.715Z,0.77
2023-06-04T23:59:45.484Z,0.70
